createdAt,value
2019-05-25T00:03:38.757Z,97774.00
2019-05-25T00:07:39.838Z,97770.00
2019-05-25T00:11:40.830Z,97762.00
2019-05-25T00:15:41.945Z,97776.00
2019-05-25T00:19:42.855Z,97766.00
2019-05-25T00:23:43.740Z,97772.00
2019-05-25T00:27:44.610Z,97774.00
2019-05-25T00:31:45.525Z,97774.00
2019-05-25T00:35:46.633Z,97772.00
2019-05-25T00:39:47.536Z,97772.00
2019-05-25T00:43:48.441Z,97767.00
2019-05-25T00:47:49.326Z,97774.00
2019-05-25T00:51:50.214Z,97750.00
2019-05-25T00:55:51.174Z,97757.00
2019-05-25T00:59:52.143Z,97755.00
2019-05-25T01:03:53.148Z,97766.00
2019-05-25T01:07:54.295Z,97757.00
2019-05-25T01:11:55.371Z,97771.00
2019-05-25T01:15:56.444Z,97769.00
2019-05-25T01:19:57.371Z,97772.00
2019-05-25T01:23:58.241Z,97771.00
2019-05-25T01:27:59.140Z,97773.00
2019-05-25T01:32:00.034Z,97772.00
2019-05-25T01:36:01.036Z,97772.00
2019-05-25T01:40:03.381Z,97777.00
2019-05-25T01:44:04.413Z,97777.00
2019-05-25T01:48:05.584Z,97784.00
2019-05-25T01:52:06.495Z,97779.00
2019-05-25T01:56:07.489Z,97781.00
2019-05-25T02:00:08.964Z,97761.00
2019-05-25T02:04:09.979Z,97775.00
2019-05-25T02:08:11.002Z,97781.00
2019-05-25T02:12:11.970Z,97776.00
2019-05-25T02:16:12.853Z,97783.00
2019-05-25T02:20:14.023Z,97789.00
2019-05-25T02:24:14.929Z,97776.00
2019-05-25T02:28:15.850Z,97781.00
2019-05-25T02:32:17.063Z,97781.00
2019-05-25T02:36:20.661Z,97769.00
2019-05-25T02:40:21.052Z,97783.00
2019-05-25T02:44:21.969Z,97765.00
2019-05-25T02:48:22.943Z,97771.00
2019-05-25T02:52:23.923Z,97768.00
2019-05-25T02:56:24.948Z,97773.00
2019-05-25T03:00:29.136Z,97767.00
2019-05-25T03:04:30.034Z,97772.00
2019-05-25T03:08:31.650Z,97772.00
2019-05-25T03:12:32.804Z,97779.00
2019-05-25T03:16:33.721Z,97784.00
2019-05-25T03:20:34.697Z,97786.00
2019-05-25T03:24:35.609Z,97781.00
2019-05-25T03:28:36.473Z,97786.00
2019-05-25T03:32:37.465Z,97791.00
2019-05-25T03:36:38.382Z,97791.00
2019-05-25T03:40:39.358Z,97785.00
2019-05-25T03:44:40.268Z,97786.00
2019-05-25T03:48:41.134Z,97796.00
2019-05-25T03:52:42.033Z,97790.00
2019-05-25T03:56:43.043Z,97792.00
2019-05-25T04:00:44.036Z,97793.00
2019-05-25T04:04:45.028Z,97789.00
2019-05-25T04:08:45.999Z,97798.00
2019-05-25T04:12:46.893Z,97794.00
2019-05-25T04:16:47.913Z,97802.00
2019-05-25T04:20:48.816Z,97795.00
2019-05-25T04:24:49.689Z,97800.00
2019-05-25T04:28:50.579Z,97797.00
2019-05-25T04:32:51.482Z,97803.00
2019-05-25T04:36:52.466Z,97807.00
2019-05-25T04:40:53.351Z,97809.00
2019-05-25T04:44:54.322Z,97816.00
2019-05-25T04:48:55.401Z,97820.00
2019-05-25T04:52:56.353Z,97824.00
2019-05-25T04:56:57.261Z,97824.00
2019-05-25T05:00:58.138Z,97824.00
2019-05-25T05:04:59.104Z,97838.00
2019-05-25T05:09:00.016Z,97835.00
2019-05-25T05:13:01.048Z,97844.00
2019-05-25T05:17:02.129Z,97835.00
2019-05-25T05:21:03.167Z,97851.00
2019-05-25T05:25:05.729Z,97847.00
2019-05-25T05:29:06.652Z,97847.00
2019-05-25T05:33:07.579Z,97844.00
2019-05-25T05:37:09.957Z,97848.00
2019-05-25T05:41:12.652Z,97850.00
2019-05-25T05:45:13.798Z,97849.00
2019-05-25T05:49:15.683Z,97849.00
2019-05-25T05:53:18.498Z,97850.00
2019-05-25T05:57:19.382Z,97849.00
2019-05-25T06:01:20.296Z,97854.00
2019-05-25T06:05:21.512Z,97861.00
2019-05-25T06:09:22.497Z,97867.00
2019-05-25T06:13:23.406Z,97870.00
2019-05-25T06:17:24.421Z,97867.00
2019-05-25T06:21:25.317Z,97873.00
2019-05-25T06:25:26.367Z,97866.00
2019-05-25T06:29:27.336Z,97871.00
2019-05-25T06:33:28.351Z,97869.00
2019-05-25T06:37:29.253Z,97872.00
2019-05-25T06:41:30.362Z,97875.00
2019-05-25T06:45:31.350Z,97869.00
2019-05-25T06:49:32.260Z,97880.00
2019-05-25T06:53:33.346Z,97887.00
2019-05-25T06:57:42.653Z,97887.00
2019-05-25T07:01:37.262Z,97892.00
2019-05-25T07:05:38.382Z,97891.00
2019-05-25T07:09:39.347Z,97889.00
2019-05-25T07:13:40.247Z,97886.00
2019-05-25T07:17:41.160Z,97883.00
2019-05-25T07:21:42.224Z,97892.00
2019-05-25T07:25:43.101Z,97898.00
2019-05-25T07:29:44.020Z,97908.00
2019-05-25T07:33:45.021Z,97907.00
2019-05-25T07:37:46.019Z,97913.00
2019-05-25T07:41:46.885Z,97905.00
2019-05-25T07:45:47.791Z,97917.00
2019-05-25T07:49:48.708Z,97909.00
2019-05-25T07:53:49.752Z,97915.00
2019-05-25T07:57:50.660Z,97909.00
2019-05-25T08:01:51.647Z,97904.00
2019-05-25T08:05:52.536Z,97899.00
2019-05-25T08:09:53.445Z,97899.00
2019-05-25T08:13:54.329Z,97903.00
2019-05-25T08:17:55.209Z,97923.00
2019-05-25T08:21:56.076Z,97914.00
2019-05-25T08:25:56.996Z,97913.00
2019-05-25T08:29:57.892Z,97921.00
2019-05-25T08:33:58.811Z,97919.00
2019-05-25T08:37:59.794Z,97896.00
2019-05-25T08:42:00.680Z,97928.00
2019-05-25T08:46:01.756Z,97920.00
2019-05-25T08:50:06.216Z,97923.00
2019-05-25T08:54:07.209Z,97933.00
2019-05-25T08:58:08.087Z,97927.00
2019-05-25T09:02:09.080Z,97924.00
2019-05-25T09:06:10.040Z,97922.00
2019-05-25T09:10:13.060Z,97920.00
2019-05-25T09:14:13.946Z,97930.00
2019-05-25T09:18:14.820Z,97933.00
2019-05-25T09:22:15.690Z,97927.00
2019-05-25T09:26:16.588Z,97938.00
2019-05-25T09:30:19.474Z,97939.00
2019-05-25T09:34:20.449Z,97937.00
2019-05-25T09:38:21.452Z,97938.00
2019-05-25T09:42:22.463Z,97943.00
2019-05-25T09:46:23.511Z,97939.00
2019-05-25T09:50:24.497Z,97941.00
2019-05-25T09:54:25.351Z,97940.00
2019-05-25T09:58:26.289Z,97937.00
2019-05-25T10:02:27.390Z,97934.00
2019-05-25T10:06:28.789Z,97942.00
2019-05-25T10:10:29.646Z,97937.00
2019-05-25T10:14:30.546Z,97935.00
2019-05-25T10:18:31.649Z,97934.00
2019-05-25T10:22:32.735Z,97929.00
2019-05-25T10:26:33.616Z,97940.00
2019-05-25T10:30:34.483Z,97938.00
2019-05-25T10:34:35.393Z,97938.00
2019-05-25T10:38:36.358Z,97942.00
2019-05-25T10:42:37.272Z,97941.00
2019-05-25T10:46:38.449Z,97940.00
2019-05-25T10:50:39.447Z,97931.00
2019-05-25T10:54:40.350Z,97939.00
2019-05-25T10:58:41.271Z,97933.00
2019-05-25T11:02:42.275Z,97934.00
2019-05-25T11:06:43.184Z,97922.00
2019-05-25T11:10:44.181Z,97933.00
2019-05-25T11:14:45.075Z,97921.00
2019-05-25T11:18:46.170Z,97917.00
2019-05-25T11:22:47.146Z,97918.00
2019-05-25T11:26:48.011Z,97916.00
2019-05-25T11:30:49.121Z,97901.00
2019-05-25T11:34:50.135Z,97916.00
2019-05-25T11:38:51.018Z,97914.00
2019-05-25T11:42:52.099Z,97906.00
2019-05-25T11:46:53.348Z,97906.00
2019-05-25T11:50:54.253Z,97902.00
2019-05-25T11:54:55.290Z,97891.00
2019-05-25T11:58:56.253Z,97886.00
2019-05-25T12:02:57.344Z,97888.00
2019-05-25T12:06:58.443Z,97892.00
2019-05-25T12:10:59.438Z,97888.00
2019-05-25T12:15:00.460Z,97880.00
2019-05-25T12:19:01.484Z,97864.00
2019-05-25T12:23:03.270Z,97887.00
2019-05-25T12:27:04.674Z,97882.00
2019-05-25T12:31:05.664Z,97878.00
2019-05-25T12:35:07.964Z,97874.00
2019-05-25T12:39:08.995Z,97876.00
2019-05-25T12:43:10.013Z,97866.00
2019-05-25T12:47:11.007Z,97871.00
2019-05-25T12:51:11.894Z,97869.00
2019-05-25T12:55:12.973Z,97865.00
2019-05-25T12:59:13.862Z,97863.00
2019-05-25T13:03:14.945Z,97850.00
2019-05-25T13:07:15.820Z,97854.00
2019-05-25T13:11:16.846Z,97850.00
2019-05-25T13:15:18.006Z,97848.00
2019-05-25T13:19:19.032Z,97843.00
2019-05-25T13:23:19.952Z,97842.00
2019-05-25T13:27:21.009Z,97844.00
2019-05-25T13:31:22.740Z,97844.00
2019-05-25T13:35:23.755Z,97849.00
2019-05-25T13:39:24.778Z,97843.00
2019-05-25T13:43:25.704Z,97835.00
2019-05-25T13:47:26.777Z,97835.00
2019-05-25T13:51:27.662Z,97842.00
2019-05-25T13:55:28.575Z,97847.00
2019-05-25T13:59:29.489Z,97841.00
2019-05-25T14:03:30.389Z,97833.00
2019-05-25T14:07:31.463Z,97841.00
2019-05-25T14:11:32.473Z,97844.00
2019-05-25T14:15:33.387Z,97841.00
2019-05-25T14:19:34.274Z,97837.00
2019-05-25T14:23:35.343Z,97839.00
2019-05-25T14:27:36.332Z,97843.00
2019-05-25T14:31:45.406Z,97842.00
2019-05-25T14:35:40.428Z,97829.00
2019-05-25T14:39:41.407Z,97834.00
2019-05-25T14:43:42.425Z,97836.00
2019-05-25T14:47:43.417Z,97839.00
2019-05-25T14:51:44.408Z,97831.00
2019-05-25T14:55:45.481Z,97836.00
2019-05-25T14:59:46.457Z,97839.00
2019-05-25T15:03:47.318Z,97834.00
2019-05-25T15:07:48.335Z,97834.00
2019-05-25T15:12:03.392Z,97833.00
2019-05-25T15:16:04.426Z,97832.00
2019-05-25T15:20:06.599Z,97830.00
2019-05-25T15:24:07.597Z,97832.00
2019-05-25T15:28:08.576Z,97828.00
2019-05-25T15:32:19.457Z,97819.00
2019-05-25T15:36:12.404Z,97821.00
2019-05-25T15:40:13.747Z,97821.00
2019-05-25T15:44:14.682Z,97818.00
2019-05-25T15:48:15.760Z,97834.00
2019-05-25T15:52:16.654Z,97829.00
2019-05-25T15:56:17.511Z,97827.00
2019-05-25T16:00:22.392Z,97832.00
2019-05-25T16:04:23.418Z,97830.00
2019-05-25T16:08:24.474Z,97830.00
2019-05-25T16:12:25.452Z,97829.00
2019-05-25T16:16:30.228Z,97833.00
2019-05-25T16:20:29.178Z,97842.00
2019-05-25T16:24:30.032Z,97835.00
2019-05-25T16:28:30.923Z,97841.00
2019-05-25T16:32:31.822Z,97838.00
2019-05-25T16:36:32.846Z,97845.00
2019-05-25T16:40:33.719Z,97853.00
2019-05-25T16:44:34.744Z,97835.00
2019-05-25T16:48:35.810Z,97842.00
2019-05-25T16:52:36.646Z,97851.00
2019-05-25T16:56:37.493Z,97856.00
2019-05-25T17:00:38.398Z,97848.00
2019-05-25T17:04:39.278Z,97854.00
2019-05-25T17:08:40.131Z,97855.00
2019-05-25T17:12:41.023Z,97851.00
2019-05-25T17:16:41.918Z,97851.00
2019-05-25T17:20:42.890Z,97853.00
2019-05-25T17:24:43.867Z,97870.00
2019-05-25T17:28:44.740Z,97869.00
2019-05-25T17:32:45.836Z,97876.00
2019-05-25T17:36:46.846Z,97879.00
2019-05-25T17:40:47.832Z,97882.00
2019-05-25T17:44:48.811Z,97890.00
2019-05-25T17:48:49.800Z,97886.00
2019-05-25T17:52:50.920Z,97892.00
2019-05-25T17:56:51.809Z,97873.00
2019-05-25T18:00:52.786Z,97885.00
2019-05-25T18:04:53.651Z,97887.00
2019-05-25T18:08:54.726Z,97897.00
2019-05-25T18:12:55.649Z,97892.00
2019-05-25T18:16:56.626Z,97888.00
2019-05-25T18:20:57.733Z,97892.00
2019-05-25T18:24:58.737Z,97891.00
2019-05-25T18:28:59.617Z,97896.00
2019-05-25T18:33:00.588Z,97894.00
2019-05-25T18:37:01.782Z,97890.00
2019-05-25T18:41:02.754Z,97889.00
2019-05-25T18:45:05.644Z,97896.00
2019-05-25T18:49:06.633Z,97904.00
2019-05-25T18:53:07.495Z,97896.00
2019-05-25T18:57:09.462Z,97903.00
2019-05-25T19:01:10.807Z,97901.00
2019-05-25T19:05:12.617Z,97908.00
2019-05-25T19:09:13.581Z,97906.00
2019-05-25T19:13:14.796Z,97900.00
2019-05-25T19:17:15.809Z,97911.00
2019-05-25T19:21:16.924Z,97907.00
2019-05-25T19:25:18.231Z,97907.00
2019-05-25T19:29:19.228Z,97919.00
2019-05-25T19:33:20.278Z,97916.00
2019-05-25T19:37:21.300Z,97926.00
2019-05-25T19:41:22.299Z,97932.00
2019-05-25T19:45:23.506Z,97948.00
2019-05-25T19:49:24.422Z,97961.00
2019-05-25T19:53:25.273Z,97968.00
2019-05-25T19:57:26.196Z,97967.00
2019-05-25T20:01:27.352Z,97977.00
2019-05-25T20:05:28.291Z,97983.00
2019-05-25T20:09:29.281Z,97991.00
2019-05-25T20:13:30.166Z,97985.00
2019-05-25T20:17:31.076Z,97990.00
2019-05-25T20:21:32.110Z,97989.00
2019-05-25T20:25:33.098Z,97990.00
2019-05-25T20:29:33.981Z,97998.00
2019-05-25T20:33:35.214Z,97988.00
2019-05-25T20:37:36.466Z,97994.00
2019-05-25T20:41:37.473Z,97994.00
2019-05-25T20:45:38.590Z,97997.00
2019-05-25T20:49:39.507Z,97997.00
2019-05-25T20:53:40.609Z,98007.00
2019-05-25T20:57:41.486Z,98006.00
2019-05-25T21:01:42.497Z,98004.00
2019-05-25T21:05:50.252Z,98000.00
2019-05-25T21:09:46.269Z,98004.00
2019-05-25T21:13:47.165Z,98009.00
2019-05-25T21:17:48.179Z,98017.00
2019-05-25T21:21:49.159Z,98023.00
2019-05-25T21:25:50.040Z,98011.00
2019-05-25T21:29:50.954Z,98007.00
2019-05-25T21:33:52.027Z,98003.00
2019-05-25T21:37:52.981Z,98010.00
2019-05-25T21:41:54.026Z,98012.00
2019-05-25T21:45:54.939Z,98010.00
2019-05-25T21:49:55.834Z,98009.00
2019-05-25T21:53:56.751Z,98012.00
2019-05-25T21:57:57.623Z,98000.00
2019-05-25T22:01:58.622Z,97994.00
2019-05-25T22:05:59.498Z,98003.00
2019-05-25T22:10:00.450Z,98004.00
2019-05-25T22:14:01.516Z,97992.00
2019-05-25T22:18:02.633Z,97992.00
2019-05-25T22:22:03.827Z,97995.00
2019-05-25T22:26:04.887Z,97998.00
2019-05-25T22:30:08.023Z,97998.00
2019-05-25T22:34:08.930Z,97993.00
2019-05-25T22:38:09.898Z,97987.00
2019-05-25T22:42:10.862Z,97990.00
2019-05-25T22:46:11.813Z,97986.00
2019-05-25T22:50:13.762Z,97996.00
2019-05-25T22:54:14.874Z,97982.00
2019-05-25T22:58:15.755Z,97989.00
2019-05-25T23:02:16.651Z,97985.00
2019-05-25T23:06:17.533Z,97995.00
2019-05-25T23:10:18.686Z,97988.00
2019-05-25T23:14:19.702Z,97986.00
2019-05-25T23:18:20.739Z,97986.00
2019-05-25T23:22:21.689Z,97977.00
2019-05-25T23:26:22.583Z,97989.00
2019-05-25T23:30:23.854Z,97987.00
2019-05-25T23:34:24.744Z,97975.00
2019-05-25T23:38:25.750Z,97979.00
2019-05-25T23:42:26.704Z,97980.00
2019-05-25T23:46:27.607Z,97976.00
2019-05-25T23:50:28.709Z,97975.00
2019-05-25T23:54:29.562Z,97970.00
2019-05-25T23:58:30.445Z,97968.00
